Time;durP1;ratioP1;P1;durP2;ratioP2;P2;SDS_P1;SDS_P2;PMS_P1;PMS_P2;Temp;Humidity;BMP_temperature;BMP_pressure;BME280_temperature;BME280_humidity;BME280_pressure;Samples;Min_cycle;Max_cycle;Signal;HPM_P1;HPM_P2
2023/07/14 00:00:09;;;;;;;3.42;1.55;;;;;;;14.89;100.00;96197.97;5063585;28;24838;-78
2023/07/14 00:02:36;;;;;;;1.88;1.30;;;;;;;14.87;100.00;96202.47;5059730;28;24438;-78
2023/07/14 00:05:02;;;;;;;2.37;1.60;;;;;;;14.85;100.00;96201.75;5064730;28;24511;-78
2023/07/14 00:07:29;;;;;;;2.57;1.63;;;;;;;14.85;100.00;96204.34;5062321;28;24438;-78
2023/07/14 00:09:56;;;;;;;6.15;1.58;;;;;;;14.93;100.00;96196.81;5065352;28;24503;-78
2023/07/14 00:12:22;;;;;;;3.33;1.83;;;;;;;14.90;100.00;96189.19;5063012;28;24435;-78
2023/07/14 00:14:50;;;;;;;3.92;1.90;;;;;;;14.87;100.00;96194.66;5057541;28;24435;-78
2023/07/14 00:17:17;;;;;;;2.65;1.50;;;;;;;14.89;100.00;96192.75;5064584;28;24477;-78
2023/07/14 00:19:44;;;;;;;5.80;1.73;;;;;;;14.92;100.00;96189.94;5066144;28;24434;-78
2023/07/14 00:22:12;;;;;;;2.70;1.50;;;;;;;14.82;100.00;96188.09;5063993;28;24466;-78
2023/07/14 00:24:39;;;;;;;2.63;1.52;;;;;;;14.75;100.00;96179.88;5067044;28;24469;-78
2023/07/14 00:27:17;;;;;;;3.83;1.50;;;;;;;14.68;100.00;96183.88;5071012;28;24426;-77
2023/07/14 00:29:45;;;;;;;3.00;1.52;;;;;;;14.59;100.00;96180.19;5070643;28;24427;-78
2023/07/14 00:32:16;;;;;;;2.40;1.33;;;;;;;14.49;100.00;96180.00;5065773;28;24427;-78
2023/07/14 00:34:43;;;;;;;2.67;1.27;;;;;;;14.46;100.00;96177.59;5065434;28;24431;-78
2023/07/14 00:37:10;;;;;;;3.45;1.77;;;;;;;14.38;100.00;96173.88;5069139;28;24439;-78
2023/07/14 00:39:36;;;;;;;6.47;1.60;;;;;;;14.33;100.00;96173.38;5066220;28;24454;-78
2023/07/14 00:42:07;;;;;;;4.25;1.67;;;;;;;14.14;100.00;96177.28;5069406;28;24430;-78
2023/07/14 00:44:34;;;;;;;3.20;1.50;;;;;;;14.17;100.00;96182.28;5068092;28;24447;-78
2023/07/14 00:47:00;;;;;;;3.47;2.00;;;;;;;14.28;100.00;96179.75;5068610;28;24514;-78
2023/07/14 00:49:35;;;;;;;3.37;1.73;;;;;;;14.34;100.00;96181.06;5066714;28;24439;-78
2023/07/14 00:52:07;;;;;;;3.40;1.60;;;;;;;14.26;100.00;96175.56;5065455;28;24439;-77
2023/07/14 00:54:34;;;;;;;3.15;1.88;;;;;;;14.22;100.00;96177.56;5064462;28;24499;-78
2023/07/14 00:57:01;;;;;;;4.85;2.00;;;;;;;14.17;100.00;96181.44;5064943;28;24427;-78
2023/07/14 00:59:33;;;;;;;5.13;1.70;;;;;;;14.18;100.00;96176.13;5066283;28;24435;-78
2023/07/14 01:02:24;;;;;;;3.00;1.55;;;;;;;14.25;100.00;96168.72;5059475;28;24461;-78
2023/07/14 01:04:56;;;;;;;3.78;1.77;;;;;;;14.38;100.00;96164.25;5056250;28;24483;-78
2023/07/14 01:07:27;;;;;;;3.10;1.50;;;;;;;14.50;100.00;96166.03;5066525;28;24423;-78
2023/07/14 01:09:58;;;;;;;2.88;1.52;;;;;;;14.64;100.00;96169.41;5072310;28;24431;-77
2023/07/14 01:12:26;;;;;;;2.37;1.73;;;;;;;14.57;100.00;96176.00;5067716;28;24496;-77
2023/07/14 01:14:56;;;;;;;3.00;1.90;;;;;;;14.53;100.00;96172.78;5061924;28;24426;-78
2023/07/14 01:17:23;;;;;;;1.70;1.30;;;;;;;14.38;100.00;96177.28;5067289;28;24447;-78
2023/07/14 01:19:54;;;;;;;2.53;1.55;;;;;;;14.35;100.00;96171.47;5063911;28;24428;-78
2023/07/14 01:22:30;;;;;;;2.80;1.58;;;;;;;14.26;100.00;96165.97;5068550;28;24435;-78
2023/07/14 01:25:15;;;;;;;2.65;1.60;;;;;;;14.22;100.00;96164.53;5064850;28;24975;-78
2023/07/14 01:27:46;;;;;;;2.20;1.58;;;;;;;14.07;100.00;96152.59;5068815;28;24424;-78
2023/07/14 01:30:14;;;;;;;2.55;1.63;;;;;;;13.85;100.00;96153.28;5060635;28;24435;-78
2023/07/14 01:32:44;;;;;;;2.65;1.48;;;;;;;13.77;100.00;96145.16;5068638;28;24446;-78
2023/07/14 01:35:12;;;;;;;5.50;1.98;;;;;;;13.79;100.00;96146.75;5067388;28;24416;-78
2023/07/14 01:37:40;;;;;;;3.20;1.80;;;;;;;13.94;100.00;96142.22;5069855;28;24447;-78
2023/07/14 01:40:11;;;;;;;2.92;1.60;;;;;;;13.97;100.00;96147.19;5068298;28;24432;-78
2023/07/14 01:42:39;;;;;;;4.45;1.77;;;;;;;13.91;100.00;96146.81;5069772;28;24499;-78
2023/07/14 01:45:12;;;;;;;2.55;1.30;;;;;;;13.78;100.00;96145.06;5069242;28;24443;-78
2023/07/14 01:47:39;;;;;;;2.25;1.40;;;;;;;13.71;100.00;96138.59;5066675;28;24423;-78
2023/07/14 01:50:15;;;;;;;4.05;1.50;;;;;;;13.73;100.00;96143.72;5061532;28;24430;-77
2023/07/14 01:52:42;;;;;;;2.10;1.40;;;;;;;13.76;100.00;96138.31;5063470;28;24490;-78
2023/07/14 01:55:14;;;;;;;5.07;1.67;;;;;;;13.88;100.00;96140.03;5062830;28;24420;-78
2023/07/14 01:57:43;;;;;;;2.95;1.77;;;;;;;13.84;100.00;96133.38;5057774;28;24502;-78
2023/07/14 02:00:13;;;;;;;2.22;1.50;;;;;;;13.68;100.00;96137.97;5065425;28;24434;-78
2023/07/14 02:02:41;;;;;;;2.95;1.50;;;;;;;13.61;100.00;96132.41;5060251;28;24430;-78
2023/07/14 02:05:18;;;;;;;5.67;1.70;;;;;;;13.46;100.00;96131.69;5066348;28;24431;-78
2023/07/14 02:07:46;;;;;;;2.95;1.58;;;;;;;13.35;100.00;96123.78;5069094;28;24456;-78
2023/07/14 02:10:13;;;;;;;;;;;;;;;13.45;100.00;96124.78;5069090;28;20049;-78
2023/07/14 02:12:42;;;;;;;;;;;;;;;13.51;100.00;96126.97;5065763;28;19921;-78
2023/07/14 02:15:12;;;;;;;;;;;;;;;13.55;100.00;96128.44;5063208;28;19921;-78
2023/07/14 02:17:40;;;;;;;;;;;;;;;13.59;100.00;96130.81;5069670;28;19921;-78
2023/07/14 02:20:10;;;;;;;;;;;;;;;13.66;100.00;96126.88;5066345;28;19928;-78
2023/07/14 02:22:38;;;;;;;;;;;;;;;13.60;100.00;96124.69;5067968;28;20007;-77
2023/07/14 02:25:07;;;;;;;;;;;;;;;13.62;100.00;96118.44;5059057;28;19928;-78
2023/07/14 02:27:33;;;;;;;;;;;;;;;13.59;100.00;96117.81;5067714;28;19928;-78
2023/07/14 02:30:00;;;;;;;;;;;;;;;13.67;100.00;96121.53;5068062;28;19921;-78
2023/07/14 02:32:28;;;;;;;;;;;;;;;13.59;100.00;96121.25;5068704;28;19924;-78
2023/07/14 02:35:00;;;;;;;;;;;;;;;13.59;100.00;96113.44;5060493;28;19925;-78
2023/07/14 02:38:03;;;;;;;2.70;1.50;;;;;;;13.54;100.00;96115.53;5065934;28;19947;-78
2023/07/14 02:40:33;;;;;;;2.65;1.40;;;;;;;13.46;100.00;96113.47;5058644;28;20783;-78
2023/07/14 02:42:59;;;;;;;3.45;1.90;;;;;;;13.36;100.00;96111.59;5062605;28;24427;-78
2023/07/14 02:45:27;;;;;;;2.00;1.50;;;;;;;13.23;100.00;96107.19;5065382;28;24428;-78
2023/07/14 02:47:58;;;;;;;3.40;1.67;;;;;;;13.02;100.00;96119.03;5068251;28;24430;-78
2023/07/14 02:50:26;;;;;;;2.50;1.63;;;;;;;13.02;100.00;96113.84;5071314;28;24439;-78
2023/07/14 02:52:53;;;;;;;2.70;1.85;;;;;;;13.07;100.00;96112.59;5069981;28;24443;-78
2023/07/14 02:55:19;;;;;;;2.90;1.90;;;;;;;13.15;100.00;96112.06;5065514;28;24442;-78
2023/07/14 02:57:46;;;;;;;2.42;1.50;;;;;;;13.28;100.00;96107.75;5057382;28;24965;-79
2023/07/14 03:00:15;;;;;;;2.28;1.50;;;;;;;13.38;100.00;96099.28;5063479;28;24999;-78
2023/07/14 03:02:42;;;;;;;2.58;1.60;;;;;;;13.40;100.00;96100.88;5067187;28;24550;-78
2023/07/14 03:05:11;;;;;;;2.65;1.48;;;;;;;13.21;100.00;96096.06;5069843;28;24427;-78
2023/07/14 03:07:39;;;;;;;2.10;1.50;;;;;;;13.11;100.00;96086.38;5061538;28;24566;-78
2023/07/14 03:10:08;;;;;;;2.50;1.60;;;;;;;13.20;100.00;96091.81;5065023;28;24996;-78
2023/07/14 03:12:35;;;;;;;2.35;1.85;;;;;;;13.23;100.00;96086.41;5062354;28;24467;-78
2023/07/14 03:15:01;;;;;;;4.32;1.42;;;;;;;13.04;100.00;96083.34;5059684;28;24435;-78
2023/07/14 03:17:28;;;;;;;9.50;1.52;;;;;;;12.98;100.00;96081.19;5069512;28;24447;-78
2023/07/14 03:19:54;;;;;;;2.20;1.50;;;;;;;12.98;100.00;96089.81;5067760;28;24462;-78
2023/07/14 03:22:23;;;;;;;2.90;1.30;;;;;;;12.89;100.00;96087.81;5063769;28;24431;-78
2023/07/14 03:24:50;;;;;;;2.83;1.50;;;;;;;12.80;100.00;96081.47;5061552;28;24420;-78
2023/07/14 03:27:17;;;;;;;3.03;1.42;;;;;;;12.83;100.00;96078.69;5068878;28;24439;-78
2023/07/14 03:29:43;;;;;;;3.97;1.60;;;;;;;12.86;100.00;96072.41;5062608;28;24435;-78
2023/07/14 03:32:12;;;;;;;2.83;1.77;;;;;;;12.84;100.00;96069.13;5061615;28;24488;-78
2023/07/14 03:34:40;;;;;;;4.00;1.73;;;;;;;12.94;100.00;96077.09;5067787;28;24423;-78
2023/07/14 03:37:07;;;;;;;7.20;1.95;;;;;;;12.87;100.00;96071.50;5062712;28;24435;-78
2023/07/14 03:39:33;;;;;;;2.95;1.65;;;;;;;12.85;100.00;96070.75;5066760;28;24455;-78
2023/07/14 03:42:01;;;;;;;3.97;1.80;;;;;;;13.01;100.00;96067.97;5067116;28;24427;-78
2023/07/14 03:44:28;;;;;;;2.95;1.77;;;;;;;13.03;100.00;96072.13;5064901;28;24424;-78
2023/07/14 03:46:54;;;;;;;2.43;1.80;;;;;;;12.94;100.00;96069.31;5064453;28;24416;-78
2023/07/14 03:49:21;;;;;;;2.15;1.30;;;;;;;12.78;100.00;96070.34;5066459;28;24874;-79
2023/07/14 03:51:47;;;;;;;3.75;1.60;;;;;;;12.74;100.00;96070.66;5065454;28;24423;-79
2023/07/14 03:54:14;;;;;;;1.58;1.38;;;;;;;12.76;100.00;96072.22;5052933;28;24443;-80
2023/07/14 03:56:42;;;;;;;1.80;1.50;;;;;;;12.76;100.00;96074.00;5044444;28;24436;-80
2023/07/14 03:59:09;;;;;;;3.83;1.67;;;;;;;12.77;100.00;96079.06;5050596;28;24509;-80
2023/07/14 04:01:36;;;;;;;2.22;1.40;;;;;;;12.72;100.00;96075.97;5043191;28;24473;-79
2023/07/14 04:04:02;;;;;;;4.13;1.60;;;;;;;12.68;100.00;96074.50;5052554;28;24439;-80
2023/07/14 04:06:29;;;;;;;3.20;1.52;;;;;;;12.80;100.00;96073.69;5045372;28;24439;-79
2023/07/14 04:08:59;;;;;;;3.33;1.63;;;;;;;12.86;100.00;96082.00;5060535;28;24423;-79
2023/07/14 04:11:26;;;;;;;4.03;1.55;;;;;;;12.91;100.00;96077.34;5053266;28;24753;-79
2023/07/14 04:13:53;;;;;;;2.45;1.60;;;;;;;12.88;100.00;96074.94;5052122;28;24427;-79
2023/07/14 04:16:23;;;;;;;4.53;1.75;;;;;;;12.98;100.00;96070.78;5057235;28;24431;-78
2023/07/14 04:18:50;;;;;;;3.05;1.80;;;;;;;13.06;100.00;96063.31;5052026;28;24450;-78
2023/07/14 04:21:17;;;;;;;3.90;1.70;;;;;;;12.98;100.00;96061.22;5056689;28;24431;-79
2023/07/14 04:23:43;;;;;;;3.58;2.05;;;;;;;12.91;100.00;96048.75;5046237;28;24825;-76
2023/07/14 04:26:11;;;;;;;3.70;2.00;;;;;;;13.03;100.00;96051.31;5048764;28;24848;-76
2023/07/14 04:28:38;;;;;;;2.58;1.90;;;;;;;13.14;100.00;96049.78;5040708;28;24506;-76
2023/07/14 04:31:05;;;;;;;3.20;2.15;;;;;;;13.20;100.00;96049.34;5043618;28;24454;-77
2023/07/14 04:33:33;;;;;;;3.65;1.98;;;;;;;13.19;100.00;96052.88;5052181;28;24435;-78
2023/07/14 04:36:00;;;;;;;2.80;1.98;;;;;;;13.11;100.00;96047.38;5047173;28;24434;-79
2023/07/14 04:38:26;;;;;;;4.15;2.30;;;;;;;13.08;100.00;96051.00;5059470;28;24467;-79
2023/07/14 04:40:53;;;;;;;3.45;1.92;;;;;;;13.12;100.00;96049.03;5059280;28;24427;-78
2023/07/14 04:43:20;;;;;;;5.93;2.63;;;;;;;13.19;100.00;96051.09;5058433;28;24427;-79
2023/07/14 04:45:47;;;;;;;4.78;2.75;;;;;;;13.11;100.00;96050.81;5055592;28;24455;-78
2023/07/14 04:48:15;;;;;;;3.67;2.17;;;;;;;13.08;100.00;96045.81;5056988;28;24435;-79
2023/07/14 04:50:45;;;;;;;3.67;2.08;;;;;;;13.11;100.00;96055.19;5056387;28;24817;-79
2023/07/14 04:53:12;;;;;;;3.28;1.88;;;;;;;13.18;100.00;96056.44;5055860;28;24524;-79
2023/07/14 04:55:40;;;;;;;4.10;2.03;;;;;;;13.27;100.00;96048.88;5049771;28;24442;-78
2023/07/14 04:58:07;;;;;;;5.60;1.90;;;;;;;13.49;100.00;96055.16;5042259;28;24426;-78
2023/07/14 05:00:35;;;;;;;3.08;1.77;;;;;;;13.63;100.00;96047.22;5050183;28;24455;-79
2023/07/14 05:03:02;;;;;;;3.47;2.00;;;;;;;13.80;100.00;96052.06;5048123;28;24944;-78
2023/07/14 05:05:29;;;;;;;2.50;1.70;;;;;;;13.95;100.00;96051.91;5051578;28;24434;-78
2023/07/14 05:07:57;;;;;;;5.30;1.80;;;;;;;14.06;100.00;96048.53;5049765;28;24427;-78
2023/07/14 05:10:26;;;;;;;2.38;1.88;;;;;;;14.16;100.00;96047.75;5052793;28;25000;-79
2023/07/14 05:12:53;;;;;;;3.10;1.95;;;;;;;14.29;100.00;96048.53;5051663;28;24435;-79
2023/07/14 05:15:20;;;;;;;3.58;2.22;;;;;;;14.41;100.00;96033.75;5054320;28;24425;-79
2023/07/14 05:17:47;;;;;;;3.93;1.97;;;;;;;14.45;100.00;96040.41;5057186;28;24435;-79
2023/07/14 05:20:15;;;;;;;3.75;1.98;;;;;;;14.45;100.00;96035.19;5058581;28;24447;-79
2023/07/14 05:22:44;;;;;;;3.28;2.20;;;;;;;14.50;100.00;96043.56;5058511;28;24485;-79
2023/07/14 05:25:13;;;;;;;6.60;2.30;;;;;;;14.56;100.00;96042.25;5063331;28;24462;-79
2023/07/14 05:27:39;;;;;;;6.35;1.77;;;;;;;14.50;100.00;96035.72;5060143;28;24435;-79
2023/07/14 05:30:09;;;;;;;4.40;2.00;;;;;;;14.59;100.00;96044.63;5050935;28;24428;-79
2023/07/14 05:32:35;;;;;;;7.03;2.20;;;;;;;14.76;100.00;96032.97;5060930;28;24445;-79
2023/07/14 05:35:02;;;;;;;5.05;1.80;;;;;;;14.90;100.00;96040.53;5058592;28;24454;-77
2023/07/14 05:37:28;;;;;;;7.35;2.40;;;;;;;14.81;100.00;96035.22;5053185;28;24466;-77
2023/07/14 05:39:55;;;;;;;3.55;2.05;;;;;;;14.79;100.00;96034.47;5046794;28;24920;-77
2023/07/14 05:42:23;;;;;;;7.80;2.13;;;;;;;14.68;100.00;96036.16;5050966;28;24439;-79
2023/07/14 05:44:49;;;;;;;4.73;1.97;;;;;;;14.64;100.00;96037.28;5063889;28;24450;-79
2023/07/14 05:47:16;;;;;;;5.45;2.17;;;;;;;14.61;100.00;96036.69;5061831;28;24434;-78
2023/07/14 05:49:42;;;;;;;5.30;2.13;;;;;;;14.70;100.00;96042.06;5053338;28;24432;-79
2023/07/14 05:52:10;;;;;;;7.00;2.90;;;;;;;14.80;100.00;96029.19;5059715;28;24485;-79
2023/07/14 05:54:37;;;;;;;6.72;2.65;;;;;;;14.94;100.00;96033.31;5053403;28;24535;-78
2023/07/14 05:57:04;;;;;;;4.63;2.40;;;;;;;15.13;100.00;96031.00;5054655;28;24522;-79
2023/07/14 05:59:32;;;;;;;9.20;3.15;;;;;;;15.11;100.00;96038.09;5061745;28;24454;-78
2023/07/14 06:01:58;;;;;;;6.57;2.20;;;;;;;15.17;100.00;96031.59;5049423;28;24843;-79
2023/07/14 06:04:25;;;;;;;6.90;2.80;;;;;;;15.25;100.00;96034.44;5057967;28;24450;-79
2023/07/14 06:06:52;;;;;;;8.57;2.45;;;;;;;15.34;100.00;96023.25;5053768;28;24470;-79
2023/07/14 06:09:18;;;;;;;4.38;2.10;;;;;;;15.37;100.00;96022.22;5060031;28;24626;-78
2023/07/14 06:11:45;;;;;;;5.18;2.03;;;;;;;15.35;100.00;96027.56;5053909;28;24985;-79
2023/07/14 06:14:12;;;;;;;4.60;2.10;;;;;;;15.59;100.00;96016.97;5055287;28;24991;-79
2023/07/14 06:16:39;;;;;;;4.30;1.70;;;;;;;15.76;100.00;96023.50;5065318;28;24430;-78
2023/07/14 06:19:07;;;;;;;5.38;2.05;;;;;;;15.89;100.00;96033.78;5058318;28;24493;-77
2023/07/14 06:21:33;;;;;;;2.28;2.03;;;;;;;16.10;100.00;96029.47;5055928;28;24805;-78
2023/07/14 06:24:00;;;;;;;3.37;2.30;;;;;;;16.47;100.00;96023.88;5058941;28;24442;-78
2023/07/14 06:26:28;;;;;;;6.13;2.15;;;;;;;16.68;100.00;96021.22;5060958;28;25036;-79
2023/07/14 06:28:54;;;;;;;4.05;2.20;;;;;;;16.78;100.00;96011.69;5054409;28;24466;-79
2023/07/14 06:31:21;;;;;;;6.75;2.80;;;;;;;16.68;100.00;96008.97;5059308;28;24502;-79
2023/07/14 06:33:49;;;;;;;4.07;2.00;;;;;;;16.78;100.00;96005.66;5060121;28;24428;-79
2023/07/14 06:36:16;;;;;;;5.30;2.10;;;;;;;17.15;100.00;96008.59;5059415;28;24552;-79
2023/07/14 06:38:42;;;;;;;3.88;2.00;;;;;;;17.32;99.62;96002.75;5054568;28;24809;-77
2023/07/14 06:41:09;;;;;;;3.80;2.10;;;;;;;17.56;98.84;96002.41;5046553;28;24447;-77
2023/07/14 06:43:36;;;;;;;5.10;1.85;;;;;;;17.86;95.04;96004.16;5061298;28;24431;-79
2023/07/14 06:46:03;;;;;;;8.23;2.27;;;;;;;17.85;94.68;95997.28;5062139;28;24536;-79
2023/07/14 06:48:30;;;;;;;14.52;2.45;;;;;;;17.88;93.71;95997.00;5065686;28;24467;-79
2023/07/14 06:50:58;;;;;;;5.22;2.40;;;;;;;17.94;94.78;96003.47;5061102;28;24840;-79
2023/07/14 06:53:25;;;;;;;7.82;2.65;;;;;;;18.15;96.56;95995.50;5064404;28;24439;-78
2023/07/14 06:55:52;;;;;;;4.65;1.95;;;;;;;18.33;90.18;95983.38;5056995;28;24431;-77
2023/07/14 06:58:18;;;;;;;5.30;2.22;;;;;;;18.33;88.61;95985.16;5047883;28;24430;-77
2023/07/14 07:00:44;;;;;;;6.47;2.20;;;;;;;18.40;88.12;95988.06;5047910;28;24498;-76
2023/07/14 07:03:11;;;;;;;5.25;2.00;;;;;;;18.34;89.13;95986.81;5050717;28;24816;-76
2023/07/14 07:05:39;;;;;;;7.10;2.35;;;;;;;18.43;87.30;95977.28;5050350;28;24960;-80
2023/07/14 07:08:09;;;;;;;4.35;2.00;;;;;;;18.65;85.74;95977.00;5053700;28;24438;-79
2023/07/14 07:10:35;;;;;;;4.35;2.28;;;;;;;18.97;86.43;95984.53;5053620;28;24431;-80
2023/07/14 07:13:02;;;;;;;3.53;1.83;;;;;;;19.25;83.79;95988.03;5050102;28;24439;-80
2023/07/14 07:15:28;;;;;;;4.53;2.20;;;;;;;19.38;82.70;95982.44;5049165;28;24438;-80
2023/07/14 07:17:55;;;;;;;4.82;1.60;;;;;;;19.44;79.38;95983.69;5047939;28;24466;-80
2023/07/14 07:20:21;;;;;;;4.20;1.70;;;;;;;19.56;77.92;95980.69;5047544;28;25062;-78
2023/07/14 07:22:48;;;;;;;7.13;2.00;;;;;;;19.75;79.91;95981.59;5045856;28;25043;-79
2023/07/14 07:25:17;;;;;;;3.20;1.50;;;;;;;19.88;77.49;95992.59;5053276;28;24435;-79
2023/07/14 07:27:43;;;;;;;3.83;1.85;;;;;;;19.97;76.07;95989.06;5047264;28;24456;-78
2023/07/14 07:30:11;;;;;;;3.40;1.67;;;;;;;20.10;74.47;95998.38;5048790;28;24432;-78
2023/07/14 07:32:40;;;;;;;3.40;1.90;;;;;;;20.06;74.45;95993.44;5043187;28;24455;-79
2023/07/14 07:35:07;;;;;;;5.17;1.90;;;;;;;20.08;73.12;95990.66;5041839;28;24446;-78
2023/07/14 07:37:33;;;;;;;3.80;1.70;;;;;;;20.15;74.28;95985.63;5049365;28;24489;-78
2023/07/14 07:40:02;;;;;;;9.80;2.17;;;;;;;20.24;72.37;95977.63;5049496;28;24455;-78
2023/07/14 07:42:30;;;;;;;6.05;1.80;;;;;;;20.49;71.38;95972.59;5052418;28;24442;-78
2023/07/14 07:44:56;;;;;;;3.50;1.65;;;;;;;20.69;70.91;95968.00;5042776;28;24443;-77
2023/07/14 07:47:23;;;;;;;3.25;1.65;;;;;;;20.77;68.62;95966.25;5045407;28;24428;-77
2023/07/14 07:49:49;;;;;;;18.42;1.90;;;;;;;20.90;67.61;95957.94;5048079;28;24462;-77
2023/07/14 07:52:16;;;;;;;5.85;2.05;;;;;;;21.05;65.91;95966.09;5047276;28;25225;-77
2023/07/14 07:54:43;;;;;;;6.85;1.83;;;;;;;21.60;65.75;95965.72;5036758;28;24448;-77
2023/07/14 07:57:10;;;;;;;3.45;1.58;;;;;;;21.84;61.75;95950.94;5039856;28;24994;-77
2023/07/14 07:59:38;;;;;;;4.18;1.40;;;;;;;21.91;58.96;95949.31;5042982;28;24522;-77
2023/07/14 08:02:06;;;;;;;4.75;2.00;;;;;;;22.12;62.36;95946.22;5040942;28;24447;-78
2023/07/14 08:04:33;;;;;;;7.47;1.95;;;;;;;22.67;60.92;95935.84;5044743;28;24438;-77
2023/07/14 08:07:00;;;;;;;3.80;1.42;;;;;;;23.10;55.15;95935.63;5037536;28;24447;-78
2023/07/14 08:09:26;;;;;;;4.47;1.83;;;;;;;23.24;53.62;95936.72;5047502;28;24439;-77
2023/07/14 08:11:55;;;;;;;9.95;1.73;;;;;;;23.29;50.79;95929.13;5043572;28;24443;-77
2023/07/14 08:14:22;;;;;;;3.13;1.65;;;;;;;23.42;49.62;95929.38;5039722;28;24439;-77
2023/07/14 08:16:50;;;;;;;6.40;2.13;;;;;;;23.12;49.44;95933.63;5044630;28;24451;-77
2023/07/14 08:19:16;;;;;;;6.63;1.83;;;;;;;22.88;50.74;95932.69;5042064;28;24435;-77
2023/07/14 08:21:42;;;;;;;2.22;1.38;;;;;;;23.32;50.88;95931.41;5045741;28;24438;-77
2023/07/14 08:24:10;;;;;;;5.23;1.60;;;;;;;23.75;49.03;95935.38;5044888;28;24443;-78
2023/07/14 08:26:38;;;;;;;3.33;1.47;;;;;;;23.77;47.29;95928.09;5048821;28;24980;-78
2023/07/14 08:29:06;;;;;;;8.55;1.70;;;;;;;23.83;45.75;95911.53;5049276;28;24434;-78
2023/07/14 08:31:32;;;;;;;3.38;1.42;;;;;;;23.88;45.50;95908.38;5044361;28;24440;-78
2023/07/14 08:34:00;;;;;;;6.72;1.55;;;;;;;23.99;45.73;95918.53;5036260;28;24440;-77
2023/07/14 08:36:27;;;;;;;2.30;1.40;;;;;;;24.08;45.89;95914.81;5041583;28;24439;-77
2023/07/14 08:38:54;;;;;;;5.50;1.42;;;;;;;24.24;45.49;95915.69;5044898;28;24442;-77
2023/07/14 08:41:28;;;;;;;4.40;1.30;;;;;;;24.42;44.35;95915.44;5049546;28;24636;-77
2023/07/14 08:44:17;;;;;;;5.07;1.60;;;;;;;24.46;47.08;95912.25;5045755;28;24470;-78
2023/07/14 08:46:55;;;;;;;3.13;1.47;;;;;;;24.17;43.48;95905.00;5042616;28;24972;-77
2023/07/14 08:49:25;;;;;;;4.32;1.55;;;;;;;23.96;44.77;95910.94;5043625;28;24434;-78
2023/07/14 08:51:54;;;;;;;2.55;1.38;;;;;;;23.50;45.68;95916.13;5047490;28;24447;-77
2023/07/14 08:54:24;;;;;;;11.40;1.85;;;;;;;23.88;44.84;95903.09;5042665;28;25000;-78
2023/07/14 08:56:52;;;;;;;10.57;1.70;;;;;;;23.96;45.61;95916.25;5046600;28;24832;-78
2023/07/14 08:59:26;;;;;;;5.00;1.70;;;;;;;23.78;49.45;95913.06;5048897;28;24485;-78
2023/07/14 09:01:55;;;;;;;3.55;1.60;;;;;;;23.80;50.64;95911.03;5047123;28;24451;-77
2023/07/14 09:04:26;;;;;;;4.57;1.70;;;;;;;23.59;45.74;95909.00;5046653;28;24439;-77
2023/07/14 09:06:52;;;;;;;2.70;1.60;;;;;;;23.60;47.24;95906.16;5047552;28;24443;-77
2023/07/14 09:09:25;;;;;;;4.53;1.73;;;;;;;23.55;47.06;95907.72;5051668;28;24430;-77
2023/07/14 09:12:02;;;;;;;5.35;1.50;;;;;;;23.74;46.15;95912.56;5041246;28;24428;-77
2023/07/14 09:14:57;;;;;;;4.40;1.40;;;;;;;23.86;46.29;95913.81;5045139;28;24485;-77
2023/07/14 09:17:34;;;;;;;4.07;1.73;;;;;;;23.84;48.66;95913.19;5043094;28;24980;-77
2023/07/14 09:20:19;;;;;;;4.07;1.30;;;;;;;23.80;46.40;95913.69;5042623;28;24455;-77
2023/07/14 09:22:52;;;;;;;3.63;1.52;;;;;;;23.92;44.15;95912.31;5052014;28;24438;-77
2023/07/14 09:25:28;;;;;;;7.57;1.60;;;;;;;23.94;45.69;95912.94;5046496;28;24438;-77
2023/07/14 09:27:56;;;;;;;3.35;1.48;;;;;;;23.84;45.78;95902.59;5048952;28;24435;-78
2023/07/14 09:30:26;;;;;;;3.83;1.80;;;;;;;23.77;46.91;95911.38;5041258;28;24427;-78
2023/07/14 09:32:55;;;;;;;2.58;1.42;;;;;;;24.05;45.38;95909.88;5050618;28;24518;-77
2023/07/14 09:35:26;;;;;;;6.35;1.73;;;;;;;23.98;45.94;95905.47;5046362;28;25035;-77
2023/07/14 09:37:58;;;;;;;6.20;1.52;;;;;;;23.70;44.93;95907.81;5051747;28;24454;-77
2023/07/14 09:40:28;;;;;;;4.80;1.92;;;;;;;23.80;46.03;95901.28;5046925;28;24507;-77
2023/07/14 09:42:56;;;;;;;3.72;1.55;;;;;;;23.83;45.64;95898.28;5051387;28;24439;-77
2023/07/14 09:45:24;;;;;;;4.25;1.63;;;;;;;23.79;48.64;95894.34;5047344;28;24515;-77
2023/07/14 09:47:56;;;;;;;4.30;1.63;;;;;;;23.46;46.64;95904.25;5051037;28;24454;-77
2023/07/14 09:50:26;;;;;;;2.50;1.40;;;;;;;23.37;48.78;95894.75;5049809;28;24431;-77
2023/07/14 09:52:56;;;;;;;2.20;1.20;;;;;;;23.43;46.30;95894.88;5047818;28;24466;-78
2023/07/14 09:55:23;;;;;;;3.55;1.50;;;;;;;23.53;46.71;95896.47;5046105;28;24431;-78
2023/07/14 09:57:53;;;;;;;2.20;1.38;;;;;;;23.45;47.61;95889.41;5041394;28;24502;-77
2023/07/14 10:00:25;;;;;;;2.58;1.30;;;;;;;23.38;47.23;95881.34;5051911;28;24455;-77
2023/07/14 10:03:04;;;;;;;3.10;1.63;;;;;;;23.28;48.63;95887.81;5042058;28;24497;-78
2023/07/14 10:05:37;;;;;;;3.40;1.50;;;;;;;23.34;47.65;95884.50;5047309;28;24498;-77
2023/07/14 10:08:05;;;;;;;5.38;1.80;;;;;;;23.42;47.50;95884.47;5050822;28;24428;-77
2023/07/14 10:10:35;;;;;;;3.85;1.30;;;;;;;23.51;46.93;95882.59;5048022;28;24458;-77
2023/07/14 10:13:18;;;;;;;2.25;1.40;;;;;;;23.64;48.99;95874.91;5045528;28;24439;-78
2023/07/14 10:15:53;;;;;;;2.08;1.38;;;;;;;23.72;47.80;95882.00;5049317;28;24427;-78
2023/07/14 10:18:20;;;;;;;4.10;1.67;;;;;;;23.80;46.93;95888.06;5051005;28;24481;-78
2023/07/14 10:21:00;;;;;;;2.28;1.48;;;;;;;23.86;45.42;95874.16;5048809;28;24459;-77
2023/07/14 10:23:27;;;;;;;2.67;1.48;;;;;;;24.03;45.83;95874.88;5041627;28;24436;-78
2023/07/14 10:25:55;;;;;;;4.50;1.90;;;;;;;23.90;45.31;95875.44;5049616;28;24439;-77
2023/07/14 10:28:27;;;;;;;2.90;1.40;;;;;;;23.88;45.75;95879.28;5051196;28;24893;-77
2023/07/14 10:31:02;;;;;;;3.70;1.58;;;;;;;23.57;44.30;95871.31;5044737;28;24462;-77
2023/07/14 10:33:38;;;;;;;3.85;1.40;;;;;;;23.65;48.78;95871.28;5044124;28;24824;-78
2023/07/14 10:36:11;;;;;;;3.83;1.30;;;;;;;23.61;43.29;95873.44;5038371;28;25084;-77
2023/07/14 10:38:43;;;;;;;3.40;1.60;;;;;;;23.85;45.65;95866.41;5049282;28;24435;-78
2023/07/14 10:41:11;;;;;;;2.80;1.42;;;;;;;23.90;44.33;95859.56;5050748;28;24489;-78
2023/07/14 10:43:45;;;;;;;2.78;1.45;;;;;;;24.07;44.66;95856.81;5047277;28;24578;-77
2023/07/14 10:46:15;;;;;;;2.30;1.50;;;;;;;24.38;48.02;95862.81;5047252;28;24960;-77
2023/07/14 10:48:48;;;;;;;13.05;1.70;;;;;;;24.42;45.48;95851.91;5045423;28;24432;-77
2023/07/14 10:51:28;;;;;;;2.45;1.40;;;;;;;24.39;43.37;95847.78;5043036;28;24527;-77
2023/07/14 10:53:59;;;;;;;8.43;1.67;;;;;;;24.51;42.71;95854.28;5047047;28;25014;-78
2023/07/14 10:56:30;;;;;;;3.63;1.52;;;;;;;24.70;45.73;95855.59;5050529;28;24446;-77
2023/07/14 10:59:02;;;;;;;3.10;1.30;;;;;;;24.29;42.83;95844.56;5048493;28;24435;-77
2023/07/14 11:01:35;;;;;;;5.77;1.53;;;;;;;24.29;44.24;95844.56;5039773;28;24789;-77
2023/07/14 11:04:15;;;;;;;2.22;1.35;;;;;;;24.28;43.36;95840.25;5049146;28;24439;-77
2023/07/14 11:06:46;;;;;;;4.45;1.40;;;;;;;24.19;41.58;95836.84;5050412;28;24844;-77
2023/07/14 11:09:14;;;;;;;1.77;1.10;;;;;;;24.30;44.21;95836.41;5050261;28;24538;-78
2023/07/14 11:11:49;;;;;;;2.70;1.20;;;;;;;24.68;47.43;95836.41;5049094;28;24431;-78
2023/07/14 11:14:27;;;;;;;1.95;1.33;;;;;;;24.70;43.04;95831.75;5042936;28;24522;-78
2023/07/14 11:17:10;;;;;;;2.97;1.30;;;;;;;24.43;42.61;95835.81;5050841;28;24435;-78
2023/07/14 11:19:48;;;;;;;2.40;1.43;;;;;;;24.63;40.96;95831.66;5047639;28;24991;-78
2023/07/14 11:22:30;;;;;;;7.53;1.33;;;;;;;24.56;41.34;95822.78;5050849;28;24817;-78
2023/07/14 11:25:07;;;;;;;2.70;1.40;;;;;;;24.58;41.57;95828.75;5050122;28;24435;-78
2023/07/14 11:27:36;;;;;;;3.30;1.40;;;;;;;24.65;42.65;95839.41;5047772;28;25003;-78
2023/07/14 11:30:12;;;;;;;4.03;1.50;;;;;;;24.58;41.59;95828.75;5046980;28;24428;-78
2023/07/14 11:32:57;;;;;;;4.05;1.40;;;;;;;24.50;41.79;95830.63;5048880;28;24485;-78
2023/07/14 11:35:31;;;;;;;2.92;1.30;;;;;;;24.65;41.68;95818.22;5041925;28;25012;-78
2023/07/14 11:38:19;;;;;;;3.92;1.30;;;;;;;24.79;43.69;95820.03;5043096;28;24994;-78
2023/07/14 11:40:49;;;;;;;3.72;1.58;;;;;;;24.71;41.90;95820.16;5043235;28;24459;-78